Updated19/02/2019 5:04am 
 

Nearby Airport METAR Reports

 

KVSF - Springfield, Vermont, USA
Distance from station: WSW 8mi, 12km
Updated: 02/19/2019 4:54am
Clear
Clear
 Wind from W
Wind: W 5 mph , 7 km/h
Temperature: 9°F , -13°C
Wind Chill: 0°F , -18°C
Dew Point: -0°F , -18°C
Humidity: 66%
Barometer: 30.37 inHg , 1028.4 hPa
Clouds: Clear
Visibility: 10 miles , 16 km
2019/02/19 09:54 KVSF 190954Z AUTO 26004KT 10SM CLR M13/M18 A3037 RMK AO2 SLP298 T11331178
KLEB - Lebanon, New Hampshire, USA
Distance from station: N 18mi, 29km
Updated: 02/19/2019 4:53am
Clear
Clear
 Wind from calm
Wind: Calm
Temperature: -4°F , -20°C
Dew Point: -9°F , -23°C
Humidity: 77%
Barometer: 30.36 inHg , 1028.1 hPa
Clouds: Clear
Visibility: 10 miles , 16 km
2019/02/19 09:53 KLEB 190953Z AUTO 00000KT 10SM CLR M20/M23 A3036 RMK AO2 SLP302 I1000 T12001233
KRUT - Rutland State, Vermont, USA
Distance from station: WNW 31mi, 50km
Updated: 02/19/2019 4:56am
Clear
Clear
 Wind from calm
Wind: Calm
Temperature: -2°F , -19°C
Dew Point: -6°F , -21°C
Humidity: 84%
Barometer: 30.39 inHg , 1029.1 hPa
Clouds: Clear
Visibility: 10 miles , 16 km
2019/02/19 09:56 KRUT 190956Z AUTO 00000KT 10SM CLR M19/M21 A3039 RMK AO2 SLP315 T11891211 FZRANO $
 
KEEN - Keene/Dillant, New Hampshire, USA
Distance from station: S 34mi, 55km
Updated: 02/19/2019 4:56am
Clear
Clear
 Wind from calm
Wind: Calm
Temperature: 1°F , -17°C
Dew Point: -2°F , -19°C
Humidity: 85%
Barometer: 30.37 inHg , 1028.4 hPa
Clouds: Clear
Visibility: 10 miles , 16 km
2019/02/19 09:56 KEEN 190956Z AUTO 00000KT 10SM CLR M17/M19 A3037 RMK AO2 SLP307 T11671194 FZRANO $
K1P1 - Plymouth, New Hampshire, USA
Distance from station: NE 42mi, 67km
Updated: 02/19/2019 4:55am
Partly cloudy
Partly cloudy
 Wind from calm
Wind: Calm
Temperature: 10°F , -12°C
Dew Point: 1°F , -17°C
Humidity: 67%
Barometer: 30.33 inHg , 1027.1 hPa
Clouds: Partly cloudy
Visibility: 10 miles , 16 km
Cloud details: Partly cloudy 2800 ft
2019/02/19 09:55 K1P1 190955Z AUTO 00000KT 10SM SCT028 M12/M17 A3033 RMK AO2 T11231173
KAFN - Jaffrey, New Hampshire, USA
Distance from station: SSE 44mi, 70km
Updated: 02/19/2019 4:52am
Clear
Clear
 Wind from SE
Wind: SE 5 mph , 7 km/h
Temperature: 5°F , -15°C
Wind Chill: -5°F , -21°C
Dew Point: 1°F , -17°C
Humidity: 85%
Barometer: 30.29 inHg , 1025.7 hPa
Clouds: Clear
Visibility: 10 miles , 16 km
2019/02/19 09:52 KAFN 190952Z AUTO 13004KT 10SM CLR M15/M17 A3029 RMK AO2 SLP282 T11501172
 
KCON - Concord, New Hampshire, USA
Distance from station: ESE 45mi, 73km
Updated: 02/19/2019 4:51am
Clear
Clear
 Wind from NW
Wind: NW 14 mph , 22 km/h
Temperature: 12°F , -11°C
Wind Chill: -4°F , -20°C
Dew Point: 1°F , -17°C
Humidity: 62%
Barometer: 30.35 inHg , 1027.8 hPa
Clouds: Clear
Visibility: 10 miles , 16 km
2019/02/19 09:51 KCON 190951Z AUTO 31012KT 10SM CLR M11/M17 A3035 RMK AO2 SLP284 T11111167
KLCI - Laconia Muni, New Hampshire, USA
Distance from station: ENE 49mi, 80km
Updated: 02/19/2019 4:56am
Clear
Clear
 Wind from W
Wind: W 10 mph , 17 km/h, Gust: 16 mph , 26 km/h
Temperature: 9°F , -13°C
Wind Chill: -5°F , -21°C
Dew Point: 1°F , -17°C
Humidity: 72%
Barometer: 30.32 inHg , 1026.8 hPa
Clouds: Clear
Visibility: 10 miles , 16 km
2019/02/19 09:56 KLCI 190956Z AUTO 26009G14KT 10SM CLR M13/M17 A3032 RMK AO2 SLP290 T11281172 FZRANO $
KDDH - Bennington, Vermont, USA
Distance from station: SW 55mi, 89km
Updated: 02/19/2019 4:54am
Clear
Clear
 Wind from WSW
Wind: WSW 3 mph , 6 km/h
Temperature: -0°F , -18°C
Dew Point: -4°F , -20°C
Humidity: 84%
Barometer: 30.38 inHg , 1028.8 hPa
Clouds: Clear
Visibility: 10 miles , 16 km
2019/02/19 09:54 KDDH 190954Z AUTO 24003KT 10SM CLR M18/M20 A3038 RMK AO2 SLP305 I1000 T11781200
 
K6B0 - Middlebury, Vermont, USA
Distance from station: NW 56mi, 90km
Updated: 02/19/2019 4:56am
Clear
Clear
 Wind from calm
Wind: Calm
Temperature: 1°F , -17°C
Dew Point: -2°F , -19°C
Humidity: 85%
Barometer: 30.42 inHg , 1030.1 hPa
Clouds: Clear
Visibility: 10 miles , 16 km
2019/02/19 09:56 K6B0 190956Z AUTO 00000KT 10SM CLR M17/M19 A3042 RMK AO2 T11671192
KMHT - Manchester, New Hampshire, USA
Distance from station: ESE 56mi, 90km
Updated: 02/19/2019 4:53am
Clear
Clear
 Wind from NW
Wind: NW 10 mph , 17 km/h
Temperature: 12°F , -11°C
Wind Chill: -1°F , -18°C
Dew Point: 1°F , -17°C
Humidity: 62%
Barometer: 30.33 inHg , 1027.1 hPa
Clouds: Clear
Visibility: 10 miles , 16 km
2019/02/19 09:53 KMHT 190953Z 32009KT 10SM CLR M11/M17 A3033 RMK AO2 SLP293 T11061167 $
KORE - Orange, Massachusetts, USA
Distance from station: S 56mi, 90km
Updated: 02/19/2019 4:52am
Clear
Clear
 Wind from calm
Wind: Calm
Temperature: 3°F , -16°C
Dew Point: -0°F , -18°C
Humidity: 85%
Barometer: 30.36 inHg , 1028.1 hPa
Clouds: Clear
Visibility: 10 miles , 16 km
2019/02/19 09:52 KORE 190952Z AUTO 00000KT 10SM CLR M16/M18 A3036 RMK AO2 SLP292 I1000 T11561183
 
KMPV - Montpelier/Barre, Vermont, USA
Distance from station: N 58mi, 93km
Updated: 02/19/2019 4:51am
Clear
Clear
 Wind from WNW
Wind: WNW 12 mph , 19 km/h
Temperature: 3°F , -16°C
Wind Chill: -14°F , -26°C
Dew Point: -2°F , -19°C
Humidity: 78%
Barometer: 30.36 inHg , 1028.1 hPa
Clouds: Clear
Visibility: 10 miles , 16 km
2019/02/19 09:51 KMPV 190951Z AUTO 30010KT 10SM CLR M16/M19 A3036 RMK AO2 SLP311 T11561189
KASH - Nashua/Boire Fld, New Hampshire, USA
Distance from station: SE 59mi, 95km
Updated: 02/19/2019 4:56am
Clear
Clear
 Wind from NW
Wind: NW 12 mph , 19 km/h
Temperature: 14°F , -10°C
Wind Chill: 0°F , -18°C
Dew Point: 3°F , -16°C
Humidity: 62%
Barometer: 30.35 inHg , 1027.8 hPa
Clouds: Clear
Visibility: 10 miles , 16 km
2019/02/19 09:56 KASH 190956Z AUTO 31010KT 10SM CLR M10/M16 A3035 RMK AO2 SLP290 T11001156 FZRANO $
KAQW - North Adams, Massachusetts, USA
Distance from station: SW 62mi, 99km
Updated: 02/19/2019 4:52am
Clear
Clear
 Wind from W
Wind: W 10 mph , 17 km/h
Temperature: 9°F , -13°C
Wind Chill: -5°F , -21°C
Dew Point: 1°F , -17°C
Humidity: 72%
Barometer: 30.39 inHg , 1029.1 hPa
Clouds: Clear
Visibility: 10 miles , 16 km
2019/02/19 09:52 KAQW 190952Z AUTO 26009KT 10SM CLR M13/M17 A3039 RMK AO2 SLP305 T11281172
 
KGFL - Glens Falls, New York, USA
Distance from station: W 63mi, 101km
Updated: 02/19/2019 4:53am
Clear
Clear
 Wind from S
Wind: S 3 mph , 6 km/h
Temperature: -8°F , -22°C
Dew Point: -13°F , -25°C
Humidity: 77%
Barometer: 30.44 inHg , 1030.8 hPa
Clouds: Clear
Visibility: 10 miles , 16 km
2019/02/19 09:53 KGFL 190953Z AUTO 19003KT 10SM CLR M22/M25 A3044 RMK AO2 SLP325 T12221250
KFIT - Fitchburg, Massachusetts, USA
Distance from station: SSE 65mi, 105km
Updated: 02/19/2019 4:52am
Clear
Clear
 Wind from NW
Wind: NW 8 mph , 13 km/h
Temperature: 12°F , -11°C
Wind Chill: 0°F , -18°C
Dew Point: 1°F , -17°C
Humidity: 62%
Barometer: 30.35 inHg , 1027.8 hPa
Clouds: Clear
Visibility: 10 miles , 16 km
2019/02/19 09:52 KFIT 190952Z AUTO 31007KT 10SM CLR M11/M17 A3035 RMK AO2 SLP285 T11061172
KDAW - Rochester, New Hampshire, USA
Distance from station: E 73mi, 118km
Updated: 02/19/2019 4:51am
Clear
Clear
 Wind from WNW
Wind: WNW 10 mph , 17 km/h, Gust: 18 mph , 30 km/h
Temperature: 12°F , -11°C
Wind Chill: -1°F , -18°C
Dew Point: 1°F , -17°C
Humidity: 62%
Barometer: 30.29 inHg , 1025.7 hPa
Clouds: Clear
Visibility: 10 miles , 16 km
2019/02/19 09:51 KDAW 190951Z AUTO 29009G16KT 240V310 10SM CLR M11/M17 A3029 RMK AO2 SLP259 T11061167
 
K1V4 - St. Johnsbury, Vermont, USA
Distance from station: NNE 74mi, 119km
Updated: 02/19/2019 4:54am

 
Temperature: 7°F , -14°C
Dew Point: -0°F , -18°C
Humidity: 72%
Barometer: 30.35 inHg , 1027.8 hPa
2019/02/19 09:54 K1V4 190954Z AUTO M14/M18 A3035 RMK AO1 SLP302 T11391178
KLWM - Lawrence, Massachusetts, USA
Distance from station: SE 77mi, 124km
Updated: 02/19/2019 4:54am
Clear
Clear
 Wind from WNW
Wind: WNW 6 mph , 9 km/h
Temperature: 14°F , -10°C
Wind Chill: 5°F , -15°C
Dew Point: 1°F , -17°C
Humidity: 57%
Barometer: 30.36 inHg , 1028.1 hPa
Clouds: Clear
Visibility: 10 miles , 16 km
2019/02/19 09:54 KLWM 190954Z AUTO 29005KT 10SM CLR M10/M17 A3036 RMK AO2 SLP283 T11001167



Flag Counter
free counter page views since 4/29/2009